createdAt,value
2022-08-25T00:01:19.549Z,24.58
2022-08-25T00:03:46.062Z,24.57
2022-08-25T00:06:12.574Z,24.57
2022-08-25T00:08:38.983Z,24.57
2022-08-25T00:11:05.289Z,24.58
2022-08-25T00:13:32.668Z,24.58
2022-08-25T00:15:59.136Z,24.57
2022-08-25T00:18:25.693Z,24.55
2022-08-25T00:20:52.272Z,24.58
2022-08-25T00:23:18.590Z,24.56
2022-08-25T00:25:44.897Z,24.57
2022-08-25T00:28:11.539Z,24.57
2022-08-25T00:30:38.267Z,24.57
2022-08-25T00:33:04.585Z,24.57
2022-08-25T00:35:30.910Z,24.57
2022-08-25T00:37:57.243Z,24.56
2022-08-25T00:40:23.628Z,24.55
2022-08-25T00:42:50.089Z,24.57
2022-08-25T00:45:16.774Z,24.56
2022-08-25T00:47:43.060Z,24.56
2022-08-25T00:50:09.451Z,24.55
2022-08-25T00:52:35.958Z,24.55
2022-08-25T00:55:08.055Z,24.56
2022-08-25T00:57:35.197Z,24.55
2022-08-25T01:00:02.448Z,24.55
2022-08-25T01:02:28.935Z,24.56
2022-08-25T01:04:55.254Z,24.55
2022-08-25T01:07:21.665Z,24.55
2022-08-25T01:09:48.046Z,24.56
2022-08-25T01:12:14.464Z,24.54
2022-08-25T01:14:40.790Z,24.55
2022-08-25T01:17:07.186Z,24.56
2022-08-25T01:19:34.001Z,24.54
2022-08-25T01:22:00.952Z,24.54
2022-08-25T01:24:27.794Z,24.54
2022-08-25T01:26:54.216Z,24.53
2022-08-25T01:29:20.844Z,24.52
2022-08-25T01:31:47.185Z,24.54
2022-08-25T01:34:13.477Z,24.55
2022-08-25T01:36:40.141Z,24.55
2022-08-25T01:39:06.563Z,24.53
2022-08-25T01:41:32.865Z,24.53
2022-08-25T01:43:59.143Z,24.52
2022-08-25T01:46:25.515Z,24.52
2022-08-25T01:48:51.840Z,24.54
2022-08-25T01:51:18.446Z,24.52
2022-08-25T01:53:44.802Z,24.53
2022-08-25T01:56:11.129Z,24.56
2022-08-25T01:58:37.502Z,24.53
2022-08-25T02:01:03.831Z,24.53
2022-08-25T02:03:30.161Z,24.53
2022-08-25T02:05:59.013Z,24.53
2022-08-25T02:08:25.401Z,24.53
2022-08-25T02:10:51.784Z,24.52
2022-08-25T02:13:18.210Z,24.50
2022-08-25T02:15:47.686Z,24.54
2022-08-25T02:18:14.013Z,24.53
2022-08-25T02:20:40.453Z,24.50
2022-08-25T02:23:06.846Z,24.52
2022-08-25T02:25:33.181Z,24.51
2022-08-25T02:27:59.556Z,24.51
2022-08-25T02:30:25.914Z,24.52
2022-08-25T02:32:52.291Z,24.52
2022-08-25T02:35:18.773Z,24.51
2022-08-25T02:37:45.209Z,24.52
2022-08-25T02:40:12.046Z,24.52
2022-08-25T02:42:39.197Z,24.50
2022-08-25T02:45:09.069Z,24.50
2022-08-25T02:47:35.346Z,24.51
2022-08-25T02:50:01.911Z,24.52
2022-08-25T02:52:28.429Z,24.49
2022-08-25T02:54:54.781Z,24.50
2022-08-25T02:57:21.092Z,24.50
2022-08-25T02:59:47.366Z,24.52
2022-08-25T03:02:13.609Z,24.50
2022-08-25T03:04:39.960Z,24.51
2022-08-25T03:07:06.585Z,24.50
2022-08-25T03:09:34.234Z,24.49
2022-08-25T03:12:01.328Z,24.48
2022-08-25T03:14:27.928Z,24.51
2022-08-25T03:16:54.477Z,24.50
2022-08-25T03:19:21.310Z,24.48
2022-08-25T03:21:47.789Z,24.50
2022-08-25T03:24:14.190Z,24.51
2022-08-25T03:26:46.538Z,24.46
2022-08-25T03:29:12.877Z,24.49
2022-08-25T03:31:39.248Z,24.47
2022-08-25T03:34:05.644Z,24.48
2022-08-25T03:36:32.062Z,24.50
2022-08-25T03:38:58.573Z,24.46
2022-08-25T03:41:28.148Z,24.48
2022-08-25T03:43:55.685Z,24.52
2022-08-25T03:46:22.273Z,24.49
2022-08-25T03:48:48.986Z,24.46
2022-08-25T03:51:15.325Z,24.44
2022-08-25T03:53:41.837Z,24.47
2022-08-25T03:56:08.106Z,24.47
2022-08-25T03:58:34.551Z,24.47
2022-08-25T04:01:00.873Z,24.46
2022-08-25T04:03:27.238Z,24.45
2022-08-25T04:05:53.670Z,24.46
2022-08-25T04:08:20.189Z,24.43
2022-08-25T04:10:46.486Z,24.45
2022-08-25T04:13:13.022Z,24.43
2022-08-25T04:15:39.378Z,24.44
2022-08-25T04:18:05.972Z,24.45
2022-08-25T04:20:32.465Z,24.41
2022-08-25T04:22:58.866Z,24.42
2022-08-25T04:25:25.174Z,24.42
2022-08-25T04:27:51.520Z,24.44
2022-08-25T04:30:17.858Z,24.42
2022-08-25T04:32:44.188Z,24.42
2022-08-25T04:35:10.484Z,24.42
2022-08-25T04:37:36.786Z,24.46
2022-08-25T04:40:03.402Z,24.41
2022-08-25T04:42:30.100Z,24.41
2022-08-25T04:44:56.485Z,24.41
2022-08-25T04:47:23.092Z,24.40
2022-08-25T04:49:49.523Z,24.39
2022-08-25T04:52:16.030Z,24.44
2022-08-25T04:54:42.544Z,24.41
2022-08-25T04:57:09.023Z,24.39
2022-08-25T04:59:35.751Z,24.41
2022-08-25T05:02:02.626Z,24.39
2022-08-25T05:04:29.314Z,24.39
2022-08-25T05:06:55.614Z,24.37
2022-08-25T05:09:22.142Z,24.35
2022-08-25T05:11:48.440Z,24.38
2022-08-25T05:14:15.143Z,24.38
2022-08-25T05:16:42.087Z,24.39
2022-08-25T05:19:08.491Z,24.36
2022-08-25T05:21:35.036Z,24.36
2022-08-25T05:24:01.343Z,24.36
2022-08-25T05:26:27.701Z,24.35
2022-08-25T05:28:54.075Z,24.35
2022-08-25T05:31:20.435Z,24.36
2022-08-25T05:33:46.959Z,24.35
2022-08-25T05:36:13.266Z,24.38
2022-08-25T05:38:39.577Z,24.36
2022-08-25T05:41:06.205Z,24.34
2022-08-25T05:43:32.531Z,24.35
2022-08-25T05:45:59.045Z,24.33
2022-08-25T05:48:25.954Z,24.32
2022-08-25T05:50:52.510Z,24.33
2022-08-25T05:53:18.822Z,24.32
2022-08-25T05:55:45.122Z,24.33
2022-08-25T05:58:11.511Z,24.33
2022-08-25T06:00:40.703Z,24.31
2022-08-25T06:03:07.699Z,24.29
2022-08-25T06:05:34.100Z,24.33
2022-08-25T06:08:00.470Z,24.32
2022-08-25T06:10:27.968Z,24.34
2022-08-25T06:12:54.312Z,24.32
2022-08-25T06:15:23.333Z,24.33
2022-08-25T06:17:49.806Z,24.34
2022-08-25T06:20:16.414Z,24.37
2022-08-25T06:22:42.745Z,24.40
2022-08-25T06:25:09.234Z,24.35
2022-08-25T06:27:36.072Z,24.36
2022-08-25T06:30:07.809Z,24.38
2022-08-25T06:32:34.778Z,24.34
2022-08-25T06:35:01.186Z,24.34
2022-08-25T06:37:31.526Z,24.36
2022-08-25T06:39:57.844Z,24.36
2022-08-25T06:42:24.189Z,24.35
2022-08-25T06:44:50.702Z,24.36
2022-08-25T06:47:17.369Z,24.36
2022-08-25T06:49:44.045Z,24.36
2022-08-25T06:52:10.541Z,24.36
2022-08-25T06:54:37.333Z,24.35
2022-08-25T06:57:03.649Z,24.36
2022-08-25T06:59:32.197Z,24.37
2022-08-25T07:01:58.840Z,24.36
2022-08-25T07:04:25.588Z,24.34
2022-08-25T07:06:52.496Z,24.37
2022-08-25T07:09:19.495Z,24.36
2022-08-25T07:11:45.845Z,24.35
2022-08-25T07:14:12.129Z,24.34
2022-08-25T07:16:38.742Z,24.35
2022-08-25T07:19:08.336Z,24.35
2022-08-25T07:21:35.496Z,24.35
2022-08-25T07:24:02.320Z,24.36
2022-08-25T07:26:43.938Z,24.34
2022-08-25T07:29:10.485Z,24.38
2022-08-25T07:31:37.566Z,24.35
2022-08-25T07:34:04.123Z,24.36
2022-08-25T07:36:30.579Z,24.36
2022-08-25T07:38:57.024Z,24.38
2022-08-25T07:41:23.428Z,24.36
2022-08-25T07:43:50.055Z,24.37
2022-08-25T07:46:16.614Z,24.37
2022-08-25T07:48:43.260Z,24.34
2022-08-25T07:51:19.542Z,24.35
2022-08-25T07:53:46.050Z,24.37
2022-08-25T07:56:12.827Z,24.37
2022-08-25T07:58:39.148Z,24.38
2022-08-25T08:01:06.603Z,24.38
2022-08-25T08:03:45.177Z,24.35
2022-08-25T08:06:16.494Z,24.38
2022-08-25T08:08:51.082Z,24.37
2022-08-25T08:11:21.377Z,24.49
2022-08-25T08:13:50.860Z,24.39
2022-08-25T08:16:18.519Z,24.38
2022-08-25T08:18:44.947Z,24.37
2022-08-25T08:21:11.273Z,24.37
2022-08-25T08:23:37.889Z,24.38
2022-08-25T08:26:04.298Z,24.36
2022-08-25T08:28:30.914Z,24.36
2022-08-25T08:30:57.345Z,24.37
2022-08-25T08:33:24.229Z,24.36
2022-08-25T08:35:50.722Z,24.38
2022-08-25T08:38:22.102Z,24.36
2022-08-25T08:40:48.642Z,24.36
2022-08-25T08:43:20.990Z,24.38
2022-08-25T08:45:47.534Z,24.37
2022-08-25T08:48:16.155Z,24.39
2022-08-25T08:50:42.682Z,24.38
2022-08-25T08:53:09.839Z,24.37
2022-08-25T08:55:36.600Z,24.39
2022-08-25T09:00:29.744Z,24.38
2022-08-25T09:02:56.305Z,24.39
2022-08-25T09:05:23.121Z,24.40
2022-08-25T09:07:49.409Z,24.40
2022-08-25T09:10:21.944Z,24.40
2022-08-25T09:12:48.501Z,24.40
2022-08-25T09:15:15.036Z,24.42
2022-08-25T09:17:41.549Z,24.40
2022-08-25T09:20:18.737Z,24.42
2022-08-25T09:22:46.810Z,24.42
2022-08-25T09:25:22.067Z,24.42
2022-08-25T09:27:56.096Z,24.44
2022-08-25T09:30:24.887Z,24.44
2022-08-25T09:32:52.383Z,24.44
2022-08-25T09:35:18.985Z,24.45
2022-08-25T09:37:45.261Z,24.44
2022-08-25T09:40:12.270Z,24.44
2022-08-25T09:42:38.650Z,24.44
2022-08-25T09:45:05.103Z,24.46
2022-08-25T09:47:31.513Z,24.45
2022-08-25T09:49:59.173Z,24.46
2022-08-25T09:52:25.498Z,24.47
2022-08-25T09:54:51.933Z,24.46
2022-08-25T09:57:20.914Z,24.46
2022-08-25T09:59:57.694Z,24.49
2022-08-25T10:02:24.141Z,24.48
2022-08-25T10:04:50.495Z,24.48
2022-08-25T10:07:17.156Z,24.50
2022-08-25T10:09:43.508Z,24.49
2022-08-25T10:12:09.883Z,24.46
2022-08-25T10:14:37.361Z,24.47
2022-08-25T10:17:03.777Z,24.49
2022-08-25T10:19:30.576Z,24.51
2022-08-25T10:21:57.220Z,24.51
2022-08-25T10:24:24.137Z,24.48
2022-08-25T10:26:50.468Z,24.49
2022-08-25T10:29:16.972Z,24.51
2022-08-25T10:34:27.855Z,24.50
2022-08-25T10:36:56.030Z,24.51
2022-08-25T10:39:34.354Z,24.51
2022-08-25T10:42:02.884Z,24.64
2022-08-25T10:44:31.520Z,24.54
2022-08-25T10:46:58.026Z,24.54
2022-08-25T10:49:24.516Z,24.53
2022-08-25T10:51:51.057Z,24.53
2022-08-25T10:54:17.966Z,24.53
2022-08-25T10:56:44.583Z,24.52
2022-08-25T10:59:11.035Z,24.53
2022-08-25T11:01:43.654Z,24.53
2022-08-25T11:04:11.063Z,24.53
2022-08-25T11:06:37.668Z,24.53
2022-08-25T11:09:05.293Z,24.55
2022-08-25T11:11:32.255Z,24.53
2022-08-25T11:14:04.597Z,24.54
2022-08-25T11:16:35.900Z,24.55
2022-08-25T11:19:05.515Z,24.54
2022-08-25T11:21:32.717Z,24.54
2022-08-25T11:24:01.381Z,24.53
2022-08-25T11:26:31.957Z,24.54
2022-08-25T11:28:59.204Z,24.55
2022-08-25T11:31:25.588Z,24.54
2022-08-25T11:33:51.904Z,24.55
2022-08-25T11:36:18.232Z,24.54
2022-08-25T11:38:45.185Z,24.55
2022-08-25T11:41:14.666Z,24.55
2022-08-25T11:43:41.002Z,24.54
2022-08-25T11:46:07.338Z,24.56
2022-08-25T11:48:33.707Z,24.55
2022-08-25T11:51:00.268Z,24.56
2022-08-25T11:53:28.966Z,24.56
2022-08-25T11:55:56.680Z,24.57
2022-08-25T11:58:23.174Z,24.55
2022-08-25T12:00:49.492Z,24.56
2022-08-25T12:03:16.140Z,24.57
2022-08-25T12:05:46.081Z,24.57
2022-08-25T12:08:12.515Z,24.57
2022-08-25T12:10:39.677Z,24.57
2022-08-25T12:13:08.113Z,24.58
2022-08-25T12:15:36.999Z,24.58
2022-08-25T12:18:07.346Z,24.57
2022-08-25T12:20:35.460Z,24.58
2022-08-25T12:23:01.775Z,24.57
2022-08-25T12:25:31.369Z,24.58
2022-08-25T12:28:00.422Z,24.59
2022-08-25T12:30:27.550Z,24.58
2022-08-25T12:32:54.132Z,24.60
2022-08-25T12:35:20.860Z,24.58
2022-08-25T12:37:47.220Z,24.59
2022-08-25T12:40:13.984Z,24.58
2022-08-25T12:42:41.105Z,24.59
2022-08-25T12:45:07.400Z,24.60
2022-08-25T12:47:34.518Z,24.61
2022-08-25T12:50:00.833Z,24.60
2022-08-25T12:52:28.143Z,24.61
2022-08-25T12:54:54.646Z,24.63
2022-08-25T12:57:24.993Z,24.61
2022-08-25T12:59:51.627Z,24.63
2022-08-25T13:02:18.183Z,24.62
2022-08-25T13:04:45.226Z,24.62
2022-08-25T13:07:11.577Z,24.63
2022-08-25T13:09:39.804Z,24.64
2022-08-25T13:12:06.309Z,24.63
2022-08-25T13:17:03.891Z,24.64
2022-08-25T13:19:35.081Z,24.65
2022-08-25T13:22:01.855Z,24.65
2022-08-25T13:24:28.440Z,24.65
2022-08-25T13:26:55.045Z,24.65
2022-08-25T13:29:21.893Z,24.66
2022-08-25T13:31:48.484Z,24.66
2022-08-25T13:34:19.387Z,24.66
2022-08-25T13:36:51.933Z,24.67
2022-08-25T13:39:45.724Z,24.68
2022-08-25T13:42:07.037Z,24.69
2022-08-25T13:44:33.702Z,24.69
2022-08-25T13:47:00.170Z,24.68
2022-08-25T13:49:26.461Z,24.70
2022-08-25T13:51:54.269Z,24.70
2022-08-25T13:54:20.609Z,24.70
2022-08-25T13:56:46.954Z,24.70
2022-08-25T13:59:13.246Z,24.71
2022-08-25T14:01:52.224Z,24.72
2022-08-25T14:04:18.691Z,24.73
2022-08-25T14:06:44.961Z,24.73
2022-08-25T14:09:12.406Z,24.73
2022-08-25T14:11:38.760Z,24.73
2022-08-25T14:14:05.661Z,24.74
2022-08-25T14:16:32.089Z,24.75
2022-08-25T14:18:58.757Z,24.75
2022-08-25T14:21:25.774Z,24.75
2022-08-25T14:23:52.122Z,24.77
2022-08-25T14:26:19.041Z,24.77
2022-08-25T14:28:45.432Z,24.77
2022-08-25T14:31:11.831Z,24.78
2022-08-25T14:33:38.490Z,24.79
2022-08-25T14:36:04.878Z,24.79
2022-08-25T14:38:31.825Z,24.78
2022-08-25T14:40:59.207Z,24.79
2022-08-25T14:43:31.824Z,24.81
2022-08-25T14:45:58.773Z,24.81
2022-08-25T14:48:25.275Z,24.82
2022-08-25T14:50:51.553Z,24.81
2022-08-25T14:53:17.830Z,24.82
2022-08-25T14:55:44.300Z,24.83
2022-08-25T14:58:11.330Z,24.83
2022-08-25T15:00:38.422Z,24.83
2022-08-25T15:03:05.009Z,24.83
2022-08-25T15:05:31.501Z,24.83
2022-08-25T15:07:57.889Z,24.83
2022-08-25T15:10:25.199Z,24.84
2022-08-25T15:12:54.724Z,24.85
2022-08-25T15:15:21.593Z,24.87
2022-08-25T15:17:49.365Z,24.86
2022-08-25T15:20:16.711Z,24.87
2022-08-25T15:22:43.208Z,24.86
2022-08-25T15:25:10.402Z,24.87
2022-08-25T15:27:36.784Z,24.88
2022-08-25T15:30:03.246Z,24.88
2022-08-25T15:32:29.730Z,24.89
2022-08-25T15:34:56.204Z,24.90
2022-08-25T15:37:24.146Z,24.91
2022-08-25T15:39:50.512Z,24.89
2022-08-25T15:42:17.419Z,24.90
2022-08-25T15:44:53.550Z,24.92
2022-08-25T15:47:20.426Z,24.91
2022-08-25T15:49:47.056Z,24.92
2022-08-25T15:52:13.417Z,24.92
2022-08-25T15:54:39.738Z,24.94
2022-08-25T15:57:09.082Z,24.93
2022-08-25T15:59:40.219Z,25.09
2022-08-25T16:02:15.159Z,24.97
2022-08-25T16:04:41.824Z,24.97
2022-08-25T16:07:09.022Z,24.97
2022-08-25T16:09:39.638Z,24.95
2022-08-25T16:12:06.011Z,24.96
2022-08-25T16:14:35.098Z,24.95
2022-08-25T16:17:01.478Z,24.95
2022-08-25T16:19:27.748Z,24.95
2022-08-25T16:21:54.067Z,24.96
2022-08-25T16:24:20.413Z,24.97
2022-08-25T16:26:48.507Z,24.96
2022-08-25T16:29:15.272Z,24.96
2022-08-25T16:31:43.083Z,24.97
2022-08-25T16:34:09.626Z,24.96
2022-08-25T16:36:37.634Z,24.97
2022-08-25T16:39:04.006Z,24.96
2022-08-25T16:41:36.397Z,24.98
2022-08-25T16:44:02.742Z,24.97
2022-08-25T16:46:29.586Z,24.98
2022-08-25T16:48:55.998Z,24.97
2022-08-25T16:51:25.587Z,24.98
2022-08-25T16:53:56.130Z,24.99
2022-08-25T16:56:22.567Z,24.98
2022-08-25T16:58:49.009Z,24.98
2022-08-25T17:01:18.689Z,25.01
2022-08-25T17:03:45.006Z,24.98
2022-08-25T17:06:12.608Z,24.99
2022-08-25T17:08:39.608Z,24.99
2022-08-25T17:11:05.948Z,24.99
2022-08-25T17:13:33.265Z,25.00
2022-08-25T17:16:01.672Z,24.99
2022-08-25T17:18:29.406Z,25.00
2022-08-25T17:20:55.725Z,24.98
2022-08-25T17:23:22.106Z,24.98
2022-08-25T17:25:48.701Z,24.98
2022-08-25T17:28:15.828Z,24.98
2022-08-25T17:30:42.922Z,24.99
2022-08-25T17:33:09.196Z,24.99
2022-08-25T17:35:35.525Z,24.98
2022-08-25T17:38:02.123Z,24.99
2022-08-25T17:40:34.049Z,24.99
2022-08-25T17:43:01.421Z,25.00
2022-08-25T17:45:27.734Z,24.98
2022-08-25T17:47:54.748Z,24.98
2022-08-25T17:50:21.115Z,24.98
2022-08-25T17:52:47.497Z,24.98
2022-08-25T17:55:13.997Z,24.99
2022-08-25T17:57:42.002Z,24.99
2022-08-25T18:00:09.520Z,24.99
2022-08-25T18:02:36.994Z,24.99
2022-08-25T18:05:04.570Z,25.00
2022-08-25T18:07:30.991Z,25.00
2022-08-25T18:09:57.449Z,25.00
2022-08-25T18:12:23.825Z,24.99
2022-08-25T18:14:53.914Z,25.00
2022-08-25T18:17:22.967Z,24.99
2022-08-25T18:19:49.508Z,25.00
2022-08-25T18:22:15.864Z,24.98
2022-08-25T18:24:42.176Z,24.99
2022-08-25T18:27:08.515Z,24.99
2022-08-25T18:29:35.322Z,24.99
2022-08-25T18:32:01.705Z,25.00
2022-08-25T18:34:31.048Z,25.00
2022-08-25T18:36:58.191Z,24.99
2022-08-25T18:39:24.978Z,25.02
2022-08-25T18:41:51.636Z,25.00
2022-08-25T18:44:18.050Z,25.00
2022-08-25T18:46:45.267Z,25.00
2022-08-25T18:49:11.897Z,24.99
2022-08-25T18:51:42.353Z,25.00
2022-08-25T18:54:09.421Z,24.99
2022-08-25T18:56:49.758Z,24.99
2022-08-25T18:59:16.073Z,25.00
2022-08-25T19:01:42.909Z,24.99
2022-08-25T19:04:09.338Z,25.00
2022-08-25T19:06:35.638Z,24.98
2022-08-25T19:09:01.938Z,24.99
2022-08-25T19:11:29.110Z,24.99
2022-08-25T19:13:56.594Z,24.99
2022-08-25T19:16:24.126Z,24.99
2022-08-25T19:18:52.166Z,25.01
2022-08-25T19:21:18.984Z,25.28
2022-08-25T19:23:49.187Z,25.03
2022-08-25T19:26:17.800Z,25.02
2022-08-25T19:28:48.675Z,25.04
2022-08-25T19:31:15.603Z,25.15
2022-08-25T19:33:45.949Z,25.10
2022-08-25T19:36:12.855Z,25.15
2022-08-25T19:38:39.203Z,25.16
2022-08-25T19:41:10.694Z,25.17
2022-08-25T19:43:40.676Z,25.18
2022-08-25T19:46:22.486Z,25.22
2022-08-25T19:48:48.953Z,25.24
2022-08-25T19:51:16.785Z,25.27
2022-08-25T19:56:14.003Z,25.32
2022-08-25T19:58:41.752Z,25.35
2022-08-25T20:01:11.543Z,25.36
2022-08-25T20:03:42.949Z,25.37
2022-08-25T20:06:09.260Z,25.38
2022-08-25T20:08:37.375Z,25.40
2022-08-25T20:11:03.908Z,25.67
2022-08-25T20:13:30.982Z,25.93
2022-08-25T20:15:58.691Z,25.62
2022-08-25T20:18:25.299Z,25.53
2022-08-25T20:20:51.648Z,25.52
2022-08-25T20:23:17.946Z,25.54
2022-08-25T20:25:44.604Z,25.55
2022-08-25T20:28:12.692Z,25.56
2022-08-25T20:30:45.175Z,25.57
2022-08-25T20:33:11.570Z,25.58
2022-08-25T20:35:38.434Z,25.61
2022-08-25T20:38:05.336Z,25.63
2022-08-25T20:40:31.742Z,25.61
2022-08-25T20:42:58.230Z,25.62
2022-08-25T20:45:25.475Z,25.64
2022-08-25T20:47:51.861Z,25.64
2022-08-25T20:50:18.177Z,25.65
2022-08-25T20:52:44.603Z,25.65
2022-08-25T20:55:11.289Z,25.66
2022-08-25T20:57:38.004Z,25.68
2022-08-25T21:00:04.749Z,25.66
2022-08-25T21:02:31.106Z,25.66
2022-08-25T21:04:57.720Z,25.66
2022-08-25T21:07:24.455Z,25.66
2022-08-25T21:09:51.556Z,25.66
2022-08-25T21:12:17.848Z,25.64
2022-08-25T21:14:44.108Z,25.63
2022-08-25T21:17:10.436Z,25.66
2022-08-25T21:19:38.621Z,25.65
2022-08-25T21:22:06.552Z,25.64
2022-08-25T21:24:32.884Z,25.63
2022-08-25T21:26:59.226Z,25.61
2022-08-25T21:29:28.550Z,25.65
2022-08-25T21:31:55.390Z,25.63
2022-08-25T21:34:21.820Z,25.64
2022-08-25T21:36:48.927Z,25.64
2022-08-25T21:39:15.283Z,25.65
2022-08-25T21:41:41.860Z,25.66
2022-08-25T21:44:08.244Z,25.67
2022-08-25T21:46:34.615Z,25.67
2022-08-25T21:49:06.116Z,25.68
2022-08-25T21:51:32.899Z,25.68
2022-08-25T21:53:59.771Z,25.67
2022-08-25T21:56:26.432Z,25.70
2022-08-25T21:58:52.782Z,25.68
2022-08-25T22:01:19.199Z,25.68
2022-08-25T22:03:47.162Z,25.69
2022-08-25T22:06:13.849Z,25.69
2022-08-25T22:08:42.661Z,25.69
2022-08-25T22:11:09.232Z,25.68
2022-08-25T22:13:36.102Z,25.69
2022-08-25T22:16:07.620Z,25.67
2022-08-25T22:18:34.612Z,25.66
2022-08-25T22:21:01.128Z,25.66
2022-08-25T22:23:33.598Z,25.66
2022-08-25T22:26:11.102Z,25.65
2022-08-25T22:28:38.638Z,25.64
2022-08-25T22:31:09.150Z,25.64
2022-08-25T22:33:36.994Z,25.64
2022-08-25T22:36:07.789Z,25.63
2022-08-25T22:38:37.328Z,25.62
2022-08-25T22:41:04.346Z,25.61
2022-08-25T22:43:31.689Z,25.61
2022-08-25T22:45:58.099Z,25.60
2022-08-25T22:48:24.435Z,25.59
2022-08-25T22:50:52.116Z,25.60
2022-08-25T22:53:18.822Z,25.56
2022-08-25T22:55:45.346Z,25.56
2022-08-25T22:58:13.004Z,25.56
2022-08-25T23:00:39.307Z,25.55
2022-08-25T23:03:06.775Z,25.54
2022-08-25T23:05:34.100Z,25.53
2022-08-25T23:08:00.425Z,25.54
2022-08-25T23:10:26.876Z,25.52
2022-08-25T23:12:53.374Z,25.51
2022-08-25T23:15:19.730Z,25.50
2022-08-25T23:17:46.060Z,25.51
2022-08-25T23:20:13.878Z,25.49
2022-08-25T23:22:40.439Z,25.48
2022-08-25T23:25:08.570Z,25.49
2022-08-25T23:27:34.876Z,25.47
2022-08-25T23:30:01.651Z,25.47
2022-08-25T23:32:28.131Z,25.47
2022-08-25T23:34:54.648Z,25.47
2022-08-25T23:37:20.970Z,25.46
2022-08-25T23:39:47.343Z,25.46
2022-08-25T23:42:16.804Z,25.46
2022-08-25T23:44:44.598Z,25.45
2022-08-25T23:47:12.103Z,25.44
2022-08-25T23:49:38.611Z,25.43
2022-08-25T23:52:05.194Z,25.43
2022-08-25T23:54:31.851Z,25.42
2022-08-25T23:56:59.134Z,25.42
2022-08-25T23:59:25.771Z,25.42
